Antonello — IKVS — position and weather

sailwx.info

Track history (hours):
 
Tides and Currents Weather Stations Pressure Air Temp Water Temp Dewpoint Dewpoint Depression Visibility Wind Speed Wind Dir Waves Ship Positions

Antonello

Last reported at 2015-Jul-31 14:33 UTC. Time now 2015-Jul-31 15:24 UTC.
Position N 38°27' E 015°42'.

Length 70 m; draft 4.2 m.

Type: Ship. MMSI: 247422000.

Date/timePositionNaut miles runAvg speedWind from/ knotsBaromVisibWave heightAir tempDewpointWater temp
2015-Jul-31 14:33N 38°27' E 015°42'8 8.5
2015-Jul-31 13:33N 38°27' E 015°53'1 0.8
2015-Jul-31 12:32N 38°27' E 015°54'0 0.0
2015-Jul-31 10:13N 38°27' E 015°54'0 0.0
2015-Jul-31 09:30N 38°27' E 015°54'0 0.0
2015-Jul-31 08:30N 38°27' E 015°54'0 0.0
2015-Jul-31 07:29N 38°27' E 015°54'3 3.2
2015-Jul-31 06:33N 38°28' E 015°51'9 8.9
2015-Jul-31 05:33N 38°29' E 015°40'9 9.4
2015-Jul-31 04:33N 38°32' E 015°28'10 9.4
2015-Jul-31 03:32N 38°35' E 015°17'10 0.7
2015-Jul-30 14:07N 38°38' E 015°05'111 8.6
2015-Jul-30 01:11N 40°24' E 014°20'6 9.2
2015-Jul-30 00:33N 40°29' E 014°18'9 9.4
2015-Jul-29 23:33N 40°39' E 014°17'9 9.1
2015-Jul-29 22:33N 40°48' E 014°17'3 0.3
2015-Jul-29 14:27N 40°50' E 014°16'1 0.4
2015-Jul-29 11:26N 40°49' E 014°16'2 2.5
2015-Jul-29 10:33N 40°48' E 014°18'1 0.9
2015-Jul-29 09:33N 40°48' E 014°19'5 4.5
2015-Jul-29 08:33N 40°44' E 014°18'9 8.5
2015-Jul-29 07:33N 40°35' E 014°18'9 9.0
2015-Jul-29 06:33N 40°26' E 014°21'105 8.7
2015-Jul-28 18:32N 38°46' E 015°02'8 7.8
2015-Jul-28 17:28N 38°38' E 015°05'0 0.0
2015-Jul-28 05:05N 38°38' E 015°05'3 4.6
2015-Jul-28 04:33N 38°36' E 015°07'2 1.6
2015-Jul-28 03:30N 38°35' E 015°08'0 0.4
2015-Jul-28 02:30N 38°36' E 015°08'4 4.3
2015-Jul-28 01:33N 38°34' E 015°13'8 8.4
2015-Jul-28 00:33N 38°29' E 015°22'8 8.2
2015-Jul-27 23:33N 38°25' E 015°31'8 7.8
2015-Jul-27 22:33N 38°20' E 015°39'5 5.4
2015-Jul-27 21:33N 38°15' E 015°38'8 8.2
2015-Jul-27 20:33N 38°07' E 015°35'9 8.7
2015-Jul-27 19:33N 37°58' E 015°33'8 8.1
2015-Jul-27 18:33N 37°50' E 015°30'11 7.5
2015-Jul-27 17:05N 37°40' E 015°26'12 0.5
2015-Jul-26 19:13N 37°29' E 015°21'6 9.5
2015-Jul-26 18:33N 37°35' E 015°23'10 9.8
2015-Jul-26 17:33N 37°44' E 015°27'1010.1
2015-Jul-26 16:33N 37°54' E 015°29'1010.1
2015-Jul-26 15:33N 38°04' E 015°33'9 9.3
2015-Jul-26 14:33N 38°13' E 015°36'6 5.9
2015-Jul-26 13:33N 38°19' E 015°37'1010.2
2015-Jul-26 12:33N 38°22' E 015°25'1010.0
2015-Jul-26 11:33N 38°26' E 015°13'10 9.7
2015-Jul-26 10:33N 38°30' E 015°02'2 0.1
2015-Jul-25 10:33N 38°32' E 015°01'9 9.3
2015-Jul-25 09:33N 38°30' E 015°13'9 9.4
2015-Jul-25 08:33N 38°29' E 015°25'9 9.2
2015-Jul-25 07:33N 38°29' E 015°36'9 9.4
2015-Jul-25 06:33N 38°27' E 015°48'5 0.8
2015-Jul-25 00:17N 38°27' E 015°54'5 7.0
2015-Jul-24 23:33N 38°29' E 015°48'9 9.1
2015-Jul-24 22:33N 38°34' E 015°39'10 9.5
2015-Jul-24 21:32N 38°40' E 015°29'11 9.7
2015-Jul-24 20:23N 38°47' E 015°18'3 0.3
2015-Jul-24 08:07N 38°49' E 015°14'3 4.6
2015-Jul-24 07:29N 38°47' E 015°11'3 0.8
2015-Jul-24 03:33N 38°49' E 015°15'0 0.0
2015-Jul-24 01:24N 38°49' E 015°15'0 0.0
2015-Jul-23 23:12N 38°49' E 015°15'0 0.0
2015-Jul-23 22:33N 38°49' E 015°15'0 0.0
2015-Jul-23 21:09N 38°49' E 015°15'0 0.0
2015-Jul-23 20:30N 38°49' E 015°15'0 0.0
2015-Jul-23 19:28N 38°49' E 015°15'5 2.1
2015-Jul-23 17:11N 38°46' E 015°09'2 3.4
2015-Jul-23 16:33N 38°46' E 015°12'9 9.1
2015-Jul-23 15:33N 38°43' E 015°23'9 9.0
2015-Jul-23 14:33N 38°38' E 015°33'9 9.0
2015-Jul-23 13:33N 38°33' E 015°42'9 8.7
2015-Jul-23 12:33N 38°27' E 015°51'1 0.1
2015-Jul-23 05:33N 38°27' E 015°52'9 8.6
2015-Jul-23 04:33N 38°27' E 015°41'9 9.2
2015-Jul-23 03:33N 38°28' E 015°30'9 8.9
2015-Jul-23 02:33N 38°30' E 015°19'9 8.8
2015-Jul-23 01:32N 38°31' E 015°07'65 2.3
2015-Jul-21 20:32N 38°16' E 013°46'8 8.2
2015-Jul-21 19:33N 38°13' E 013°37'8 8.1
2015-Jul-21 18:33N 38°09' E 013°28'5 4.1
2015-Jul-21 17:25N 38°08' E 013°22'0 0.0
2015-Jul-21 16:31N 38°08' E 013°22'0 0.0
2015-Jul-21 15:33N 38°08' E 013°22'  
Track history (hours):
 
Tides and Currents Weather Stations Pressure Air Temp Water Temp Dewpoint Dewpoint Depression Visibility Wind Speed Wind Dir Waves Ship Positions

Antonello

Last reported at 2015-Jul-31 14:33 UTC. Time now 2015-Jul-31 15:24 UTC.
Position N 38°27' E 015°42'.

Length 70 m; draft 4.2 m.

Type: Ship. MMSI: 247422000.

Date/timePositionNaut miles runAvg speedWind from/ knotsBaromVisibWave heightAir tempDewpointWater temp
2015-Jul-31 14:33N 38°27' E 015°42'8 8.5
2015-Jul-31 13:33N 38°27' E 015°53'1 0.8
2015-Jul-31 12:32N 38°27' E 015°54'0 0.0
2015-Jul-31 10:13N 38°27' E 015°54'0 0.0
2015-Jul-31 09:30N 38°27' E 015°54'0 0.0
2015-Jul-31 08:30N 38°27' E 015°54'0 0.0
2015-Jul-31 07:29N 38°27' E 015°54'3 3.2
2015-Jul-31 06:33N 38°28' E 015°51'9 8.9
2015-Jul-31 05:33N 38°29' E 015°40'9 9.4
2015-Jul-31 04:33N 38°32' E 015°28'10 9.4
2015-Jul-31 03:32N 38°35' E 015°17'10 0.7
2015-Jul-30 14:07N 38°38' E 015°05'111 8.6
2015-Jul-30 01:11N 40°24' E 014°20'6 9.2
2015-Jul-30 00:33N 40°29' E 014°18'9 9.4
2015-Jul-29 23:33N 40°39' E 014°17'9 9.1
2015-Jul-29 22:33N 40°48' E 014°17'3 0.3
2015-Jul-29 14:27N 40°50' E 014°16'1 0.4
2015-Jul-29 11:26N 40°49' E 014°16'2 2.5
2015-Jul-29 10:33N 40°48' E 014°18'1 0.9
2015-Jul-29 09:33N 40°48' E 014°19'5 4.5
2015-Jul-29 08:33N 40°44' E 014°18'9 8.5
2015-Jul-29 07:33N 40°35' E 014°18'9 9.0
2015-Jul-29 06:33N 40°26' E 014°21'105 8.7
2015-Jul-28 18:32N 38°46' E 015°02'8 7.8
2015-Jul-28 17:28N 38°38' E 015°05'0 0.0
2015-Jul-28 05:05N 38°38' E 015°05'3 4.6
2015-Jul-28 04:33N 38°36' E 015°07'2 1.6
2015-Jul-28 03:30N 38°35' E 015°08'0 0.4
2015-Jul-28 02:30N 38°36' E 015°08'4 4.3
2015-Jul-28 01:33N 38°34' E 015°13'8 8.4
2015-Jul-28 00:33N 38°29' E 015°22'8 8.2
2015-Jul-27 23:33N 38°25' E 015°31'8 7.8
2015-Jul-27 22:33N 38°20' E 015°39'5 5.4
2015-Jul-27 21:33N 38°15' E 015°38'8 8.2
2015-Jul-27 20:33N 38°07' E 015°35'9 8.7
2015-Jul-27 19:33N 37°58' E 015°33'8 8.1
2015-Jul-27 18:33N 37°50' E 015°30'11 7.5
2015-Jul-27 17:05N 37°40' E 015°26'12 0.5
2015-Jul-26 19:13N 37°29' E 015°21'6 9.5
2015-Jul-26 18:33N 37°35' E 015°23'10 9.8
2015-Jul-26 17:33N 37°44' E 015°27'1010.1
2015-Jul-26 16:33N 37°54' E 015°29'1010.1
2015-Jul-26 15:33N 38°04' E 015°33'9 9.3
2015-Jul-26 14:33N 38°13' E 015°36'6 5.9
2015-Jul-26 13:33N 38°19' E 015°37'1010.2
2015-Jul-26 12:33N 38°22' E 015°25'1010.0
2015-Jul-26 11:33N 38°26' E 015°13'10 9.7
2015-Jul-26 10:33N 38°30' E 015°02'2 0.1
2015-Jul-25 10:33N 38°32' E 015°01'9 9.3
2015-Jul-25 09:33N 38°30' E 015°13'9 9.4
2015-Jul-25 08:33N 38°29' E 015°25'9 9.2
2015-Jul-25 07:33N 38°29' E 015°36'9 9.4
2015-Jul-25 06:33N 38°27' E 015°48'5 0.8
2015-Jul-25 00:17N 38°27' E 015°54'5 7.0
2015-Jul-24 23:33N 38°29' E 015°48'9 9.1
2015-Jul-24 22:33N 38°34' E 015°39'10 9.5
2015-Jul-24 21:32N 38°40' E 015°29'11 9.7
2015-Jul-24 20:23N 38°47' E 015°18'3 0.3
2015-Jul-24 08:07N 38°49' E 015°14'3 4.6
2015-Jul-24 07:29N 38°47' E 015°11'3 0.8
2015-Jul-24 03:33N 38°49' E 015°15'0 0.0
2015-Jul-24 01:24N 38°49' E 015°15'0 0.0
2015-Jul-23 23:12N 38°49' E 015°15'0 0.0
2015-Jul-23 22:33N 38°49' E 015°15'0 0.0
2015-Jul-23 21:09N 38°49' E 015°15'0 0.0
2015-Jul-23 20:30N 38°49' E 015°15'0 0.0
2015-Jul-23 19:28N 38°49' E 015°15'5 2.1
2015-Jul-23 17:11N 38°46' E 015°09'2 3.4
2015-Jul-23 16:33N 38°46' E 015°12'9 9.1
2015-Jul-23 15:33N 38°43' E 015°23'9 9.0
2015-Jul-23 14:33N 38°38' E 015°33'9 9.0
2015-Jul-23 13:33N 38°33' E 015°42'9 8.7
2015-Jul-23 12:33N 38°27' E 015°51'1 0.1
2015-Jul-23 05:33N 38°27' E 015°52'9 8.6
2015-Jul-23 04:33N 38°27' E 015°41'9 9.2
2015-Jul-23 03:33N 38°28' E 015°30'9 8.9
2015-Jul-23 02:33N 38°30' E 015°19'9 8.8
2015-Jul-23 01:32N 38°31' E 015°07'65 2.3
2015-Jul-21 20:32N 38°16' E 013°46'8 8.2
2015-Jul-21 19:33N 38°13' E 013°37'8 8.1
2015-Jul-21 18:33N 38°09' E 013°28'5 4.1
2015-Jul-21 17:25N 38°08' E 013°22'0 0.0
2015-Jul-21 16:31N 38°08' E 013°22'0 0.0
2015-Jul-21 15:33N 38°08' E 013°22'  

Dump ship's entire track history